Back to Top

Language: 

My Weather Underground Personal Weather Station Historical Data with Graphs...

Delerius Weather Station Historical Data
Daily Summary for March 22, 2017 Units:  Both    English   Metric
« Previous Day
Next Day »
Daily Weekly Monthly Yearly Custom
  High: Low: Average:
Temperature: 43.2 °F /  6.2 °C 35.4 °F /  1.9 °C 40.3 °F /  4.6 °C
Dew Point: 39.6 °F /  4.2 °C 34.1 °F /  1.2 °C 37.9 °F /  3.3 °C
Humidity: 96 % 84 % 91 %
Wind Speed: 10.0 mph /  16.1 km/h - 5.2 mph /  8.4 km/h
Wind Gust: 19.0 mph /  30.6 km/h - -
Wind:- - ESE
Pressure: 29.91 in /  1012.8 hPa 29.60 in /  1002.3 hPa -
Precipitation: 0.19 in /  4.83 mm    
Historical Graphs
 
 
Tabular Data for March 22, 2017
Time Temperature Dew Point Pressure Wind Wind Speed Wind Gust Humidity Rainfall Rate (Hourly) solar Conditions
00:04 40.3 °F /  4.6 °C 37.6 °F /  3.1 °C 29.68 in /  1005 hPa South 2.0 mph /  3.2 km/h 6.0 mph /  9.7 km/h 90 % 0.01 in /  0.25 mm 0 W/m2
00:09 40.3 °F /  4.6 °C 37.6 °F /  3.1 °C 29.68 in /  1005 hPa South 2.0 mph /  3.2 km/h 6.0 mph /  9.7 km/h 90 % 0.01 in /  0.25 mm 0 W/m2
00:14 40.1 °F /  4.5 °C 37.4 °F /  3 °C 29.68 in /  1005 hPa South 2.0 mph /  3.2 km/h 6.0 mph /  9.7 km/h 90 % 0.01 in /  0.25 mm 0 W/m2
00:19 40.1 °F /  4.5 °C 37.7 °F /  3.2 °C 29.68 in /  1005 hPa SSE 3.0 mph /  4.8 km/h 7.0 mph /  11.3 km/h 91 % 0.01 in /  0.25 mm 0 W/m2
00:24 39.9 °F /  4.4 °C 37.5 °F /  3.1 °C 29.68 in /  1005 hPa SSE 2.0 mph /  3.2 km/h 7.0 mph /  11.3 km/h 91 % 0.01 in /  0.25 mm 0 W/m2
00:29 40.1 °F /  4.5 °C 37.7 °F /  3.2 °C 29.68 in /  1005 hPa SSE 2.0 mph /  3.2 km/h 6.0 mph /  9.7 km/h 91 % 0.01 in /  0.25 mm 0 W/m2
00:34 40.1 °F /  4.5 °C 37.7 °F /  3.2 °C 29.67 in /  1004.6 hPa SE 4.0 mph /  6.4 km/h 8.0 mph /  12.9 km/h 91 % 0.01 in /  0.25 mm 0 W/m2
00:39 40.1 °F /  4.5 °C 37.7 °F /  3.2 °C 29.67 in /  1004.6 hPa SE 5.0 mph /  8 km/h 8.0 mph /  12.9 km/h 91 % 0.01 in /  0.25 mm 0 W/m2
00:44 40.3 °F /  4.6 °C 38.1 °F /  3.4 °C 29.67 in /  1004.6 hPa SSE 4.0 mph /  6.4 km/h 8.0 mph /  12.9 km/h 92 % 0.01 in /  0.25 mm 0 W/m2
00:49 40.3 °F /  4.6 °C 38.1 °F /  3.4 °C 29.67 in /  1004.6 hPa SE 3.0 mph /  4.8 km/h 6.0 mph /  9.7 km/h 92 % 0.00 in /  0 mm 0 W/m2
00:54 40.3 °F /  4.6 °C 38.1 °F /  3.4 °C 29.67 in /  1004.6 hPa SE 4.0 mph /  6.4 km/h 8.0 mph /  12.9 km/h 92 % 0.00 in /  0 mm 0 W/m2
00:59 40.1 °F /  4.5 °C 38.0 °F /  3.3 °C 29.66 in /  1004.3 hPa ESE 4.0 mph /  6.4 km/h 8.0 mph /  12.9 km/h 92 % 0.00 in /  0 mm 0 W/m2
01:04 40.1 °F /  4.5 °C 38.0 °F /  3.3 °C 29.66 in /  1004.3 hPa ESE 5.0 mph /  8 km/h 8.0 mph /  12.9 km/h 92 % 0.00 in /  0 mm 0 W/m2
01:09 40.1 °F /  4.5 °C 38.0 °F /  3.3 °C 29.66 in /  1004.3 hPa ESE 4.0 mph /  6.4 km/h 8.0 mph /  12.9 km/h 92 % 0.00 in /  0 mm 0 W/m2
01:14 40.1 °F /  4.5 °C 38.0 °F /  3.3 °C 29.66 in /  1004.3 hPa ESE 4.0 mph /  6.4 km/h 7.0 mph /  11.3 km/h 92 % 0.01 in /  0.25 mm 0 W/m2
01:19 40.1 °F /  4.5 °C 38.0 °F /  3.3 °C 29.66 in /  1004.3 hPa ESE 4.0 mph /  6.4 km/h 7.0 mph /  11.3 km/h 92 % 0.01 in /  0.25 mm 0 W/m2
01:24 39.9 °F /  4.4 °C 38.1 °F /  3.4 °C 29.66 in /  1004.3 hPa ESE 4.0 mph /  6.4 km/h 8.0 mph /  12.9 km/h 93 % 0.01 in /  0.25 mm 0 W/m2
01:29 40.1 °F /  4.5 °C 38.2 °F /  3.4 °C 29.66 in /  1004.3 hPa ESE 3.0 mph /  4.8 km/h 8.0 mph /  12.9 km/h 93 % 0.01 in /  0.25 mm 0 W/m2
01:34 40.1 °F /  4.5 °C 38.2 °F /  3.4 °C 29.66 in /  1004.3 hPa ESE 3.0 mph /  4.8 km/h 7.0 mph /  11.3 km/h 93 % 0.01 in /  0.25 mm 0 W/m2
01:40 40.1 °F /  4.5 °C 38.2 °F /  3.4 °C 29.66 in /  1004.3 hPa East 3.0 mph /  4.8 km/h 7.0 mph /  11.3 km/h 93 % 0.01 in /  0.25 mm 0 W/m2
01:45 40.1 °F /  4.5 °C 38.2 °F /  3.4 °C 29.66 in /  1004.3 hPa East 4.0 mph /  6.4 km/h 7.0 mph /  11.3 km/h 93 % 0.01 in /  0.25 mm 0 W/m2
01:50 40.1 °F /  4.5 °C 38.2 °F /  3.4 °C 29.65 in /  1003.9 hPa East 4.0 mph /  6.4 km/h 8.0 mph /  12.9 km/h 93 % 0.01 in /  0.25 mm 0 W/m2
01:55 40.1 °F /  4.5 °C 38.2 °F /  3.4 °C 29.65 in /  1003.9 hPa East 4.0 mph /  6.4 km/h 8.0 mph /  12.9 km/h 93 % 0.01 in /  0.25 mm 0 W/m2
02:00 40.3 °F /  4.6 °C 38.4 °F /  3.6 °C 29.65 in /  1003.9 hPa East 4.0 mph /  6.4 km/h 8.0 mph /  12.9 km/h 93 % 0.02 in /  0.51 mm 0 W/m2
02:05 40.1 °F /  4.5 °C 38.5 °F /  3.6 °C 29.65 in /  1003.9 hPa East 3.0 mph /  4.8 km/h 7.0 mph /  11.3 km/h 94 % 0.02 in /  0.51 mm 0 W/m2
02:10 40.1 °F /  4.5 °C 38.5 °F /  3.6 °C 29.65 in /  1003.9 hPa East 3.0 mph /  4.8 km/h 7.0 mph /  11.3 km/h 94 % 0.01 in /  0.25 mm 0 W/m2
02:15 40.1 °F /  4.5 °C 38.5 °F /  3.6 °C 29.64 in /  1003.6 hPa East 4.0 mph /  6.4 km/h 8.0 mph /  12.9 km/h 94 % 0.01 in /  0.25 mm 0 W/m2
02:20 39.9 °F /  4.4 °C 38.3 °F /  3.5 °C 29.64 in /  1003.6 hPa East 5.0 mph /  8 km/h 8.0 mph /  12.9 km/h 94 % 0.01 in /  0.25 mm 0 W/m2
02:25 39.9 °F /  4.4 °C 38.3 °F /  3.5 °C 29.63 in /  1003.3 hPa East 5.0 mph /  8 km/h 9.0 mph /  14.5 km/h 94 % 0.01 in /  0.25 mm 0 W/m2
02:30 39.9 °F /  4.4 °C 38.3 °F /  3.5 °C 29.63 in /  1003.3 hPa East 5.0 mph /  8 km/h 9.0 mph /  14.5 km/h 94 % 0.01 in /  0.25 mm 0 W/m2
02:35 39.9 °F /  4.4 °C 38.3 °F /  3.5 °C 29.63 in /  1003.3 hPa East 5.0 mph /  8 km/h 9.0 mph /  14.5 km/h 94 % 0.01 in /  0.25 mm 0 W/m2
02:40 39.9 °F /  4.4 °C 38.3 °F /  3.5 °C 29.63 in /  1003.3 hPa East 5.0 mph /  8 km/h 9.0 mph /  14.5 km/h 94 % 0.01 in /  0.25 mm 0 W/m2
02:45 39.9 °F /  4.4 °C 38.3 °F /  3.5 °C 29.62 in /  1002.9 hPa ESE 5.0 mph /  8 km/h 10.0 mph /  16.1 km/h 94 % 0.01 in /  0.25 mm 0 W/m2
02:50 39.7 °F /  4.3 °C 38.2 °F /  3.4 °C 29.62 in /  1002.9 hPa ESE 5.0 mph /  8 km/h 10.0 mph /  16.1 km/h 94 % 0.01 in /  0.25 mm 0 W/m2
02:55 39.7 °F /  4.3 °C 38.2 °F /  3.4 °C 29.63 in /  1003.3 hPa ESE 6.0 mph /  9.7 km/h 12.0 mph /  19.3 km/h 94 % 0.01 in /  0.25 mm 0 W/m2
03:00 39.7 °F /  4.3 °C 38.2 °F /  3.4 °C 29.63 in /  1003.3 hPa ESE 7.0 mph /  11.3 km/h 12.0 mph /  19.3 km/h 94 % 0.00 in /  0 mm 0 W/m2
03:05 39.7 °F /  4.3 °C 38.2 °F /  3.4 °C 29.63 in /  1003.3 hPa ESE 7.0 mph /  11.3 km/h 11.0 mph /  17.7 km/h 94 % 0.00 in /  0 mm 0 W/m2
03:10 39.7 °F /  4.3 °C 38.2 °F /  3.4 °C 29.63 in /  1003.3 hPa ESE 6.0 mph /  9.7 km/h 9.0 mph /  14.5 km/h 94 % 0.00 in /  0 mm 0 W/m2
03:15 39.7 °F /  4.3 °C 38.2 °F /  3.4 °C 29.64 in /  1003.6 hPa ESE 5.0 mph /  8 km/h 8.0 mph /  12.9 km/h 94 % 0.00 in /  0 mm 0 W/m2
03:20 39.7 °F /  4.3 °C 38.2 °F /  3.4 °C 29.63 in /  1003.3 hPa ESE 4.0 mph /  6.4 km/h 8.0 mph /  12.9 km/h 94 % 0.00 in /  0 mm 0 W/m2
03:25 39.7 °F /  4.3 °C 38.2 °F /  3.4 °C 29.63 in /  1003.3 hPa East 4.0 mph /  6.4 km/h 8.0 mph /  12.9 km/h 94 % 0.00 in /  0 mm 0 W/m2
03:30 39.7 °F /  4.3 °C 38.2 °F /  3.4 °C 29.63 in /  1003.3 hPa East 4.0 mph /  6.4 km/h 8.0 mph /  12.9 km/h 94 % 0.00 in /  0 mm 0 W/m2
03:35 39.7 °F /  4.3 °C 38.2 °F /  3.4 °C 29.63 in /  1003.3 hPa ESE 5.0 mph /  8 km/h 8.0 mph /  12.9 km/h 94 % 0.00 in /  0 mm 0 W/m2
03:40 39.7 °F /  4.3 °C 38.2 °F /  3.4 °C 29.62 in /  1002.9 hPa East 5.0 mph /  8 km/h 8.0 mph /  12.9 km/h 94 % 0.00 in /  0 mm 0 W/m2
03:45 39.9 °F /  4.4 °C 38.3 °F /  3.5 °C 29.62 in /  1002.9 hPa East 5.0 mph /  8 km/h 10.0 mph /  16.1 km/h 94 % 0.00 in /  0 mm 0 W/m2
03:50 39.9 °F /  4.4 °C 38.3 °F /  3.5 °C 29.62 in /  1002.9 hPa East 5.0 mph /  8 km/h 11.0 mph /  17.7 km/h 94 % 0.00 in /  0 mm 0 W/m2
03:55 39.9 °F /  4.4 °C 38.3 °F /  3.5 °C 29.62 in /  1002.9 hPa ESE 6.0 mph /  9.7 km/h 11.0 mph /  17.7 km/h 94 % 0.00 in /  0 mm 0 W/m2
04:00 39.9 °F /  4.4 °C 38.3 °F /  3.5 °C 29.62 in /  1002.9 hPa ESE 6.0 mph /  9.7 km/h 10.0 mph /  16.1 km/h 94 % 0.00 in /  0 mm 0 W/m2
04:05 39.9 °F /  4.4 °C 38.3 °F /  3.5 °C 29.62 in /  1002.9 hPa ESE 7.0 mph /  11.3 km/h 12.0 mph /  19.3 km/h 94 % 0.00 in /  0 mm 0 W/m2
04:10 39.9 °F /  4.4 °C 38.1 °F /  3.4 °C 29.61 in /  1002.6 hPa ESE 7.0 mph /  11.3 km/h 13.0 mph /  20.9 km/h 93 % 0.00 in /  0 mm 0 W/m2
04:15 40.1 °F /  4.5 °C 38.2 °F /  3.4 °C 29.61 in /  1002.6 hPa ESE 7.0 mph /  11.3 km/h 13.0 mph /  20.9 km/h 93 % 0.00 in /  0 mm 0 W/m2
04:21 40.3 °F /  4.6 °C 38.4 °F /  3.6 °C 29.61 in /  1002.6 hPa ESE 7.0 mph /  11.3 km/h 12.0 mph /  19.3 km/h 93 % 0.00 in /  0 mm 0 W/m2
04:26 40.3 °F /  4.6 °C 38.4 °F /  3.6 °C 29.61 in /  1002.6 hPa ESE 7.0 mph /  11.3 km/h 12.0 mph /  19.3 km/h 93 % 0.00 in /  0 mm 0 W/m2
04:31 40.3 °F /  4.6 °C 38.1 °F /  3.4 °C 29.61 in /  1002.6 hPa ESE 7.0 mph /  11.3 km/h 11.0 mph /  17.7 km/h 92 % 0.00 in /  0 mm 0 W/m2
04:36 40.3 °F /  4.6 °C 38.1 °F /  3.4 °C 29.61 in /  1002.6 hPa ESE 7.0 mph /  11.3 km/h 11.0 mph /  17.7 km/h 92 % 0.00 in /  0 mm 0 W/m2
04:41 40.1 °F /  4.5 °C 38.0 °F /  3.3 °C 29.61 in /  1002.6 hPa ESE 7.0 mph /  11.3 km/h 11.0 mph /  17.7 km/h 92 % 0.00 in /  0 mm 0 W/m2
04:46 40.3 °F /  4.6 °C 38.1 °F /  3.4 °C 29.61 in /  1002.6 hPa ESE 7.0 mph /  11.3 km/h 11.0 mph /  17.7 km/h 92 % 0.00 in /  0 mm 0 W/m2
04:51 40.3 °F /  4.6 °C 38.1 °F /  3.4 °C 29.61 in /  1002.6 hPa ESE 6.0 mph /  9.7 km/h 11.0 mph /  17.7 km/h 92 % 0.00 in /  0 mm 0 W/m2
04:56 40.3 °F /  4.6 °C 37.9 °F /  3.3 °C 29.61 in /  1002.6 hPa ESE 6.0 mph /  9.7 km/h 14.0 mph /  22.5 km/h 91 % 0.00 in /  0 mm 0 W/m2
05:01 40.3 °F /  4.6 °C 37.9 °F /  3.3 °C 29.61 in /  1002.6 hPa ESE 7.0 mph /  11.3 km/h 14.0 mph /  22.5 km/h 91 % 0.00 in /  0 mm 0 W/m2
05:06 40.3 °F /  4.6 °C 37.9 °F /  3.3 °C 29.61 in /  1002.6 hPa ESE 6.0 mph /  9.7 km/h 12.0 mph /  19.3 km/h 91 % 0.00 in /  0 mm 0 W/m2
05:11 40.3 °F /  4.6 °C 37.9 °F /  3.3 °C 29.61 in /  1002.6 hPa ESE 7.0 mph /  11.3 km/h 15.0 mph /  24.1 km/h 91 % 0.00 in /  0 mm 0 W/m2
05:16 40.3 °F /  4.6 °C 37.6 °F /  3.1 °C 29.61 in /  1002.6 hPa ESE 8.0 mph /  12.9 km/h 15.0 mph /  24.1 km/h 90 % 0.00 in /  0 mm 0 W/m2
05:21 40.3 °F /  4.6 °C 37.6 °F /  3.1 °C 29.61 in /  1002.6 hPa ESE 7.0 mph /  11.3 km/h 12.0 mph /  19.3 km/h 90 % 0.00 in /  0 mm 0 W/m2
05:26 40.3 °F /  4.6 °C 37.6 °F /  3.1 °C 29.61 in /  1002.6 hPa ESE 8.0 mph /  12.9 km/h 14.0 mph /  22.5 km/h 90 % 0.00 in /  0 mm 0 W/m2
05:31 40.3 °F /  4.6 °C 37.6 °F /  3.1 °C 29.61 in /  1002.6 hPa SE 8.0 mph /  12.9 km/h 14.0 mph /  22.5 km/h 90 % 0.00 in /  0 mm 0 W/m2
05:36 40.5 °F /  4.7 °C 37.8 °F /  3.2 °C 29.61 in /  1002.6 hPa SE 8.0 mph /  12.9 km/h 15.0 mph /  24.1 km/h 90 % 0.00 in /  0 mm 0 W/m2
05:41 40.5 °F /  4.7 °C 37.8 °F /  3.2 °C 29.61 in /  1002.6 hPa SE 8.0 mph /  12.9 km/h 15.0 mph /  24.1 km/h 90 % 0.00 in /  0 mm 0 W/m2
05:46 40.5 °F /  4.7 °C 37.8 °F /  3.2 °C 29.61 in /  1002.6 hPa SE 8.0 mph /  12.9 km/h 13.0 mph /  20.9 km/h 90 % 0.00 in /  0 mm 0 W/m2
05:51 40.5 °F /  4.7 °C 37.8 °F /  3.2 °C 29.61 in /  1002.6 hPa SE 9.0 mph /  14.5 km/h 16.0 mph /  25.7 km/h 90 % 0.00 in /  0 mm 0 W/m2
05:56 40.5 °F /  4.7 °C 37.5 °F /  3.1 °C 29.60 in /  1002.3 hPa SE 8.0 mph /  12.9 km/h 16.0 mph /  25.7 km/h 89 % 0.00 in /  0 mm 0 W/m2
06:01 40.6 °F /  4.8 °C 37.7 °F /  3.2 °C 29.61 in /  1002.6 hPa SE 8.0 mph /  12.9 km/h 14.0 mph /  22.5 km/h 89 % 0.00 in /  0 mm 0 W/m2
06:06 40.6 °F /  4.8 °C 37.7 °F /  3.2 °C 29.61 in /  1002.6 hPa SE 8.0 mph /  12.9 km/h 14.0 mph /  22.5 km/h 89 % 0.00 in /  0 mm 0 W/m2
06:11 40.6 °F /  4.8 °C 37.7 °F /  3.2 °C 29.61 in /  1002.6 hPa SE 7.0 mph /  11.3 km/h 13.0 mph /  20.9 km/h 89 % 0.00 in /  0 mm 0 W/m2
06:16 40.6 °F /  4.8 °C 37.7 °F /  3.2 °C 29.61 in /  1002.6 hPa SE 7.0 mph /  11.3 km/h 13.0 mph /  20.9 km/h 89 % 0.00 in /  0 mm 5 W/m2
06:21 40.6 °F /  4.8 °C 37.7 °F /  3.2 °C 29.61 in /  1002.6 hPa SE 7.0 mph /  11.3 km/h 13.0 mph /  20.9 km/h 89 % 0.00 in /  0 mm 5 W/m2
06:26 40.6 °F /  4.8 °C 37.7 °F /  3.2 °C 29.61 in /  1002.6 hPa SE 7.0 mph /  11.3 km/h 13.0 mph /  20.9 km/h 89 % 0.00 in /  0 mm 7 W/m2
06:31 40.6 °F /  4.8 °C 37.7 °F /  3.2 °C 29.61 in /  1002.6 hPa SE 8.0 mph /  12.9 km/h 14.0 mph /  22.5 km/h 89 % 0.00 in /  0 mm 11 W/m2
06:36 40.6 °F /  4.8 °C 37.7 °F /  3.2 °C 29.61 in /  1002.6 hPa SE 7.0 mph /  11.3 km/h 14.0 mph /  22.5 km/h 89 % 0.00 in /  0 mm 12 W/m2
06:41 40.8 °F /  4.9 °C 37.8 °F /  3.2 °C 29.61 in /  1002.6 hPa SE 7.0 mph /  11.3 km/h 12.0 mph /  19.3 km/h 89 % 0.00 in /  0 mm 16 W/m2
06:46 40.8 °F /  4.9 °C 37.5 °F /  3.1 °C 29.61 in /  1002.6 hPa SE 7.0 mph /  11.3 km/h 13.0 mph /  20.9 km/h 88 % 0.00 in /  0 mm 18 W/m2
06:51 40.8 °F /  4.9 °C 37.5 °F /  3.1 °C 29.61 in /  1002.6 hPa SE 8.0 mph /  12.9 km/h 13.0 mph /  20.9 km/h 88 % 0.00 in /  0 mm 19 W/m2
06:56 41.0 °F /  5 °C 37.7 °F /  3.2 °C 29.62 in /  1002.9 hPa SE 8.0 mph /  12.9 km/h 13.0 mph /  20.9 km/h 88 % 0.00 in /  0 mm 16 W/m2
07:01 41.0 °F /  5 °C 37.7 °F /  3.2 °C 29.62 in /  1002.9 hPa ESE 7.0 mph /  11.3 km/h 14.0 mph /  22.5 km/h 88 % 0.00 in /  0 mm 21 W/m2
07:06 41.0 °F /  5 °C 37.7 °F /  3.2 °C 29.62 in /  1002.9 hPa SE 8.0 mph /  12.9 km/h 15.0 mph /  24.1 km/h 88 % 0.00 in /  0 mm 25 W/m2
07:11 41.2 °F /  5.1 °C 37.9 °F /  3.3 °C 29.62 in /  1002.9 hPa SE 8.0 mph /  12.9 km/h 15.0 mph /  24.1 km/h 88 % 0.00 in /  0 mm 23 W/m2
07:16 41.2 °F /  5.1 °C 37.9 °F /  3.3 °C 29.62 in /  1002.9 hPa SE 8.0 mph /  12.9 km/h 13.0 mph /  20.9 km/h 88 % 0.00 in /  0 mm 33 W/m2
07:21 41.2 °F /  5.1 °C 37.9 °F /  3.3 °C 29.62 in /  1002.9 hPa SE 8.0 mph /  12.9 km/h 13.0 mph /  20.9 km/h 88 % 0.00 in /  0 mm 47 W/m2
07:26 41.4 °F /  5.2 °C 38.1 °F /  3.4 °C 29.62 in /  1002.9 hPa SE 8.0 mph /  12.9 km/h 13.0 mph /  20.9 km/h 88 % 0.00 in /  0 mm 53 W/m2
07:31 41.4 °F /  5.2 °C 38.1 °F /  3.4 °C 29.62 in /  1002.9 hPa SE 8.0 mph /  12.9 km/h 13.0 mph /  20.9 km/h 88 % 0.00 in /  0 mm 51 W/m2
07:36 41.5 °F /  5.3 °C 38.0 °F /  3.3 °C 29.62 in /  1002.9 hPa SE 8.0 mph /  12.9 km/h 15.0 mph /  24.1 km/h 87 % 0.00 in /  0 mm 58 W/m2
07:41 41.5 °F /  5.3 °C 38.0 °F /  3.3 °C 29.62 in /  1002.9 hPa SE 10.0 mph /  16.1 km/h 15.0 mph /  24.1 km/h 87 % 0.00 in /  0 mm 58 W/m2
07:46 41.7 °F /  5.4 °C 38.1 °F /  3.4 °C 29.62 in /  1002.9 hPa SE 9.0 mph /  14.5 km/h 14.0 mph /  22.5 km/h 87 % 0.00 in /  0 mm 60 W/m2
07:51 41.7 °F /  5.4 °C 38.1 °F /  3.4 °C 29.62 in /  1002.9 hPa SE 9.0 mph /  14.5 km/h 14.0 mph /  22.5 km/h 87 % 0.00 in /  0 mm 65 W/m2
07:56 41.7 °F /  5.4 °C 38.1 °F /  3.4 °C 29.62 in /  1002.9 hPa SE 8.0 mph /  12.9 km/h 13.0 mph /  20.9 km/h 87 % 0.00 in /  0 mm 56 W/m2
08:01 41.9 °F /  5.5 °C 38.0 °F /  3.3 °C 29.63 in /  1003.3 hPa SE 10.0 mph /  16.1 km/h 16.0 mph /  25.7 km/h 86 % 0.00 in /  0 mm 54 W/m2
08:06 42.1 °F /  5.6 °C 38.2 °F /  3.4 °C 29.63 in /  1003.3 hPa ESE 10.0 mph /  16.1 km/h 16.0 mph /  25.7 km/h 86 % 0.00 in /  0 mm 70 W/m2
08:11 42.1 °F /  5.6 °C 38.2 °F /  3.4 °C 29.63 in /  1003.3 hPa SE 8.0 mph /  12.9 km/h 15.0 mph /  24.1 km/h 86 % 0.00 in /  0 mm 69 W/m2
08:16 42.1 °F /  5.6 °C 38.2 °F /  3.4 °C 29.63 in /  1003.3 hPa SE 8.0 mph /  12.9 km/h 14.0 mph /  22.5 km/h 86 % 0.00 in /  0 mm 74 W/m2
08:21 42.3 °F /  5.7 °C 38.4 °F /  3.6 °C 29.63 in /  1003.3 hPa SE 9.0 mph /  14.5 km/h 15.0 mph /  24.1 km/h 86 % 0.00 in /  0 mm 90 W/m2
08:26 42.3 °F /  5.7 °C 38.4 °F /  3.6 °C 29.63 in /  1003.3 hPa SE 9.0 mph /  14.5 km/h 15.0 mph /  24.1 km/h 86 % 0.00 in /  0 mm 121 W/m2
08:31 42.4 °F /  5.8 °C 38.5 °F /  3.6 °C 29.63 in /  1003.3 hPa SE 9.0 mph /  14.5 km/h 14.0 mph /  22.5 km/h 86 % 0.00 in /  0 mm 142 W/m2
08:36 42.6 °F /  5.9 °C 38.4 °F /  3.6 °C 29.63 in /  1003.3 hPa SE 9.0 mph /  14.5 km/h 16.0 mph /  25.7 km/h 85 % 0.00 in /  0 mm 171 W/m2
08:41 43.0 °F /  6.1 °C 38.8 °F /  3.8 °C 29.63 in /  1003.3 hPa SE 9.0 mph /  14.5 km/h 16.0 mph /  25.7 km/h 85 % 0.00 in /  0 mm 121 W/m2
08:46 43.2 °F /  6.2 °C 38.7 °F /  3.7 °C 29.63 in /  1003.3 hPa SE 10.0 mph /  16.1 km/h 19.0 mph /  30.6 km/h 84 % 0.00 in /  0 mm 67 W/m2
08:51 43.2 °F /  6.2 °C 38.7 °F /  3.7 °C 29.63 in /  1003.3 hPa SE 10.0 mph /  16.1 km/h 19.0 mph /  30.6 km/h 84 % 0.00 in /  0 mm 67 W/m2
08:56 43.2 °F /  6.2 °C 38.7 °F /  3.7 °C 29.63 in /  1003.3 hPa SE 10.0 mph /  16.1 km/h 18.0 mph /  29 km/h 84 % 0.00 in /  0 mm 62 W/m2
09:01 43.0 °F /  6.1 °C 38.5 °F /  3.6 °C 29.64 in /  1003.6 hPa SE 9.0 mph /  14.5 km/h 15.0 mph /  24.1 km/h 84 % 0.00 in /  0 mm 35 W/m2
09:07 43.0 °F /  6.1 °C 38.5 °F /  3.6 °C 29.64 in /  1003.6 hPa SE 9.0 mph /  14.5 km/h 14.0 mph /  22.5 km/h 84 % 0.00 in /  0 mm 56 W/m2
09:12 43.0 °F /  6.1 °C 38.8 °F /  3.8 °C 29.64 in /  1003.6 hPa SE 9.0 mph /  14.5 km/h 15.0 mph /  24.1 km/h 85 % 0.00 in /  0 mm 60 W/m2
09:17 43.0 °F /  6.1 °C 38.8 °F /  3.8 °C 29.64 in /  1003.6 hPa SE 9.0 mph /  14.5 km/h 15.0 mph /  24.1 km/h 85 % 0.00 in /  0 mm 84 W/m2
09:22 43.0 °F /  6.1 °C 38.8 °F /  3.8 °C 29.64 in /  1003.6 hPa SE 8.0 mph /  12.9 km/h 15.0 mph /  24.1 km/h 85 % 0.00 in /  0 mm 105 W/m2
09:27 43.2 °F /  6.2 °C 39.3 °F /  4.1 °C 29.64 in /  1003.6 hPa ESE 6.0 mph /  9.7 km/h 15.0 mph /  24.1 km/h 86 % 0.00 in /  0 mm 77 W/m2
09:32 43.2 °F /  6.2 °C 39.3 °F /  4.1 °C 29.64 in /  1003.6 hPa ESE 6.0 mph /  9.7 km/h 10.0 mph /  16.1 km/h 86 % 0.00 in /  0 mm 60 W/m2
09:37 43.0 °F /  6.1 °C 39.1 °F /  3.9 °C 29.64 in /  1003.6 hPa ESE 6.0 mph /  9.7 km/h 11.0 mph /  17.7 km/h 86 % 0.00 in /  0 mm 77 W/m2
09:42 43.0 °F /  6.1 °C 39.1 °F /  3.9 °C 29.64 in /  1003.6 hPa ESE 8.0 mph /  12.9 km/h 15.0 mph /  24.1 km/h 86 % 0.00 in /  0 mm 79 W/m2
09:47 43.0 °F /  6.1 °C 39.4 °F /  4.1 °C 29.64 in /  1003.6 hPa ESE 9.0 mph /  14.5 km/h 15.0 mph /  24.1 km/h 87 % 0.00 in /  0 mm 51 W/m2
09:52 42.8 °F /  6 °C 39.2 °F /  4 °C 29.65 in /  1003.9 hPa ESE 9.0 mph /  14.5 km/h 18.0 mph /  29 km/h 87 % 0.01 in /  0.25 mm 25 W/m2
09:57 42.4 °F /  5.8 °C 39.1 °F /  3.9 °C 29.64 in /  1003.6 hPa ESE 9.0 mph /  14.5 km/h 18.0 mph /  29 km/h 88 % 0.02 in /  0.51 mm 26 W/m2
10:02 42.1 °F /  5.6 °C 38.8 °F /  3.8 °C 29.64 in /  1003.6 hPa ESE 9.0 mph /  14.5 km/h 18.0 mph /  29 km/h 88 % 0.03 in /  0.76 mm 32 W/m2
10:07 41.7 °F /  5.4 °C 38.7 °F /  3.7 °C 29.64 in /  1003.6 hPa ESE 9.0 mph /  14.5 km/h 15.0 mph /  24.1 km/h 89 % 0.04 in /  1.02 mm 62 W/m2
10:12 41.7 °F /  5.4 °C 39.0 °F /  3.9 °C 29.64 in /  1003.6 hPa ESE 8.0 mph /  12.9 km/h 13.0 mph /  20.9 km/h 90 % 0.06 in /  1.52 mm 77 W/m2
10:17 41.7 °F /  5.4 °C 39.3 °F /  4.1 °C 29.64 in /  1003.6 hPa ESE 8.0 mph /  12.9 km/h 14.0 mph /  22.5 km/h 91 % 0.06 in /  1.52 mm 60 W/m2
10:22 41.7 °F /  5.4 °C 39.3 °F /  4.1 °C 29.64 in /  1003.6 hPa ESE 8.0 mph /  12.9 km/h 14.0 mph /  22.5 km/h 91 % 0.06 in /  1.52 mm 81 W/m2
10:27 41.7 °F /  5.4 °C 39.6 °F /  4.2 °C 29.64 in /  1003.6 hPa ESE 8.0 mph /  12.9 km/h 13.0 mph /  20.9 km/h 92 % 0.06 in /  1.52 mm 105 W/m2
10:32 41.7 °F /  5.4 °C 39.6 °F /  4.2 °C 29.64 in /  1003.6 hPa ESE 7.0 mph /  11.3 km/h 13.0 mph /  20.9 km/h 92 % 0.07 in /  1.78 mm 77 W/m2
10:37 41.7 °F /  5.4 °C 39.6 °F /  4.2 °C 29.64 in /  1003.6 hPa ESE 7.0 mph /  11.3 km/h 12.0 mph /  19.3 km/h 92 % 0.07 in /  1.78 mm 56 W/m2
20:45 40.8 °F /  4.9 °C 39.5 °F /  4.2 °C 29.83 in /  1010 hPa ESE 2.0 mph /  3.2 km/h 7.0 mph /  11.3 km/h 95 % 0.00 in /  0 mm 0 W/m2
20:46 40.8 °F /  4.9 °C 39.5 °F /  4.2 °C 29.83 in /  1010 hPa ESE 2.0 mph /  3.2 km/h 7.0 mph /  11.3 km/h 95 % 0.00 in /  0 mm 0 W/m2
20:47 40.8 °F /  4.9 °C 39.5 °F /  4.2 °C 29.83 in /  1010 hPa ESE 3.0 mph /  4.8 km/h 7.0 mph /  11.3 km/h 95 % 0.00 in /  0 mm 0 W/m2
20:48 40.8 °F /  4.9 °C 39.5 °F /  4.2 °C 29.83 in /  1010 hPa ESE 3.0 mph /  4.8 km/h 7.0 mph /  11.3 km/h 95 % 0.00 in /  0 mm 0 W/m2
20:53 40.8 °F /  4.9 °C 39.5 °F /  4.2 °C 29.83 in /  1010 hPa SE 3.0 mph /  4.8 km/h 7.0 mph /  11.3 km/h 95 % 0.00 in /  0 mm 0 W/m2
20:58 40.8 °F /  4.9 °C 39.5 °F /  4.2 °C 29.83 in /  1010 hPa SE 2.0 mph /  3.2 km/h 5.0 mph /  8 km/h 95 % 0.00 in /  0 mm 0 W/m2
21:04 40.6 °F /  4.8 °C 39.0 °F /  3.9 °C 29.84 in /  1010.4 hPa ESE 2.0 mph /  3.2 km/h 6.0 mph /  9.7 km/h 94 % 0.00 in /  0 mm 0 W/m2
21:09 40.5 °F /  4.7 °C 38.9 °F /  3.8 °C 29.84 in /  1010.4 hPa ESE 2.0 mph /  3.2 km/h 6.0 mph /  9.7 km/h 94 % 0.00 in /  0 mm 0 W/m2
21:15 40.3 °F /  4.6 °C 39.0 °F /  3.9 °C 29.85 in /  1010.7 hPa SE 2.0 mph /  3.2 km/h 6.0 mph /  9.7 km/h 95 % 0.00 in /  0 mm 0 W/m2
21:19 40.3 °F /  4.6 °C 39.0 °F /  3.9 °C 29.85 in /  1010.7 hPa SE 2.0 mph /  3.2 km/h 5.0 mph /  8 km/h 95 % 0.00 in /  0 mm 0 W/m2
21:24 40.1 °F /  4.5 °C 38.8 °F /  3.8 °C 29.85 in /  1010.7 hPa SE 2.0 mph /  3.2 km/h 5.0 mph /  8 km/h 95 % 0.00 in /  0 mm 0 W/m2
21:29 39.9 °F /  4.4 °C 38.6 °F /  3.7 °C 29.85 in /  1010.7 hPa SE 2.0 mph /  3.2 km/h 6.0 mph /  9.7 km/h 95 % 0.00 in /  0 mm 0 W/m2
21:35 39.9 °F /  4.4 °C 38.6 °F /  3.7 °C 29.86 in /  1011.1 hPa SE 2.0 mph /  3.2 km/h 6.0 mph /  9.7 km/h 95 % 0.00 in /  0 mm 0 W/m2
21:40 39.7 °F /  4.3 °C 38.4 °F /  3.6 °C 29.86 in /  1011.1 hPa SE 2.0 mph /  3.2 km/h 6.0 mph /  9.7 km/h 95 % 0.00 in /  0 mm 0 W/m2
21:45 39.6 °F /  4.2 °C 38.2 °F /  3.4 °C 29.87 in /  1011.4 hPa SE 2.0 mph /  3.2 km/h 5.0 mph /  8 km/h 95 % 0.00 in /  0 mm 0 W/m2
21:50 39.4 °F /  4.1 °C 38.1 °F /  3.4 °C 29.87 in /  1011.4 hPa SE 2.0 mph /  3.2 km/h 5.0 mph /  8 km/h 95 % 0.00 in /  0 mm 0 W/m2
21:55 39.4 °F /  4.1 °C 38.1 °F /  3.4 °C 29.87 in /  1011.4 hPa SE 2.0 mph /  3.2 km/h 7.0 mph /  11.3 km/h 95 % 0.00 in /  0 mm 0 W/m2
22:00 39.4 °F /  4.1 °C 38.1 °F /  3.4 °C 29.87 in /  1011.4 hPa SSE 3.0 mph /  4.8 km/h 7.0 mph /  11.3 km/h 95 % 0.00 in /  0 mm 0 W/m2
22:05 39.2 °F /  4 °C 37.9 °F /  3.3 °C 29.87 in /  1011.4 hPa SSE 2.0 mph /  3.2 km/h 6.0 mph /  9.7 km/h 95 % 0.00 in /  0 mm 0 W/m2
22:10 39.0 °F /  3.9 °C 37.7 °F /  3.2 °C 29.87 in /  1011.4 hPa SSE 1.0 mph /  1.6 km/h 5.0 mph /  8 km/h 95 % 0.00 in /  0 mm 0 W/m2
22:16 38.8 °F /  3.8 °C 37.5 °F /  3.1 °C 29.88 in /  1011.7 hPa Calm   3.0 mph /  4.8 km/h 95 % 0.00 in /  0 mm 0 W/m2
22:21 38.5 °F /  3.6 °C 37.2 °F /  2.9 °C 29.88 in /  1011.7 hPa Calm   2.0 mph /  3.2 km/h 95 % 0.00 in /  0 mm 0 W/m2
22:26 38.1 °F /  3.4 °C 36.8 °F /  2.7 °C 29.88 in /  1011.7 hPa Calm     95 % 0.00 in /  0 mm 0 W/m2
22:31 37.9 °F /  3.3 °C 36.6 °F /  2.6 °C 29.88 in /  1011.7 hPa Calm     95 % 0.00 in /  0 mm 0 W/m2
22:36 37.8 °F /  3.2 °C 36.5 °F /  2.5 °C 29.88 in /  1011.7 hPa Calm     95 % 0.00 in /  0 mm 0 W/m2
22:41 37.6 °F /  3.1 °C 36.3 °F /  2.4 °C 29.88 in /  1011.7 hPa Calm     95 % 0.00 in /  0 mm 0 W/m2
22:46 37.4 °F /  3 °C 36.1 °F /  2.3 °C 29.89 in /  1012.1 hPa Calm     95 % 0.00 in /  0 mm 0 W/m2
22:51 37.2 °F /  2.9 °C 35.9 °F /  2.2 °C 29.89 in /  1012.1 hPa Calm     95 % 0.00 in /  0 mm 0 W/m2
22:56 37.2 °F /  2.9 °C 35.9 °F /  2.2 °C 29.89 in /  1012.1 hPa Calm     95 % 0.00 in /  0 mm 0 W/m2
23:01 37.0 °F /  2.8 °C 35.7 °F /  2.1 °C 29.89 in /  1012.1 hPa Calm     95 % 0.00 in /  0 mm 0 W/m2
23:06 36.9 °F /  2.7 °C 35.6 °F /  2 °C 29.89 in /  1012.1 hPa Calm     95 % 0.00 in /  0 mm 0 W/m2
23:11 36.7 °F /  2.6 °C 35.4 °F /  1.9 °C 29.89 in /  1012.1 hPa Calm     95 % 0.00 in /  0 mm 0 W/m2
23:16 36.3 °F /  2.4 °C 35.0 °F /  1.7 °C 29.89 in /  1012.1 hPa Calm     95 % 0.00 in /  0 mm 0 W/m2
23:21 36.1 °F /  2.3 °C 34.8 °F /  1.6 °C 29.90 in /  1012.4 hPa Calm   1.0 mph /  1.6 km/h 95 % 0.00 in /  0 mm 0 W/m2
23:26 36.0 °F /  2.2 °C 34.7 °F /  1.5 °C 29.90 in /  1012.4 hPa Calm   1.0 mph /  1.6 km/h 95 % 0.00 in /  0 mm 0 W/m2
23:31 35.8 °F /  2.1 °C 34.5 °F /  1.4 °C 29.90 in /  1012.4 hPa Calm     95 % 0.00 in /  0 mm 0 W/m2
23:36 35.4 °F /  1.9 °C 34.1 °F /  1.2 °C 29.90 in /  1012.4 hPa Calm   2.0 mph /  3.2 km/h 95 % 0.00 in /  0 mm 0 W/m2
23:41 35.4 °F /  1.9 °C 34.4 °F /  1.3 °C 29.90 in /  1012.4 hPa WNW 1.0 mph /  1.6 km/h 2.0 mph /  3.2 km/h 96 % 0.00 in /  0 mm 0 W/m2
23:47 35.6 °F /  2 °C 34.6 °F /  1.4 °C 29.91 in /  1012.8 hPa Calm   2.0 mph /  3.2 km/h 96 % 0.00 in /  0 mm 0 W/m2
23:52 35.6 °F /  2 °C 34.6 °F /  1.4 °C 29.91 in /  1012.8 hPa Calm   1.0 mph /  1.6 km/h 96 % 0.00 in /  0 mm 0 W/m2
23:57 35.6 °F /  2 °C 34.6 °F /  1.4 °C 29.91 in /  1012.8 hPa Calm     96 % 0.00 in /  0 mm 0 W/m2
Delerius-Weather
Compliments of Weather Underground - 1.5 mb

Data updates at regular intervals.